Time;durP1;ratioP1;P1;durP2;ratioP2;P2;SDS_P1;SDS_P2;PMS_P1;PMS_P2;Temp;Humidity;BMP_temperature;BMP_pressure;BME280_temperature;BME280_humidity;BME280_pressure;Samples;Min_cycle;Max_cycle;Signal;HPM_P1;HPM_P2
2022/03/31 00:01:37;;;;;;;22.50;7.18;;;12.30;99.90;;;;;;5091687;28;20463;-73
2022/03/31 00:04:03;;;;;;;17.70;6.38;;;12.30;99.90;;;;;;5091510;28;20107;-73
2022/03/31 00:06:29;;;;;;;27.50;6.95;;;12.30;99.90;;;;;;5090569;28;20038;-73
2022/03/31 00:08:55;;;;;;;21.20;7.03;;;12.30;99.90;;;;;;5090838;28;20055;-73
2022/03/31 00:11:21;;;;;;;24.83;7.38;;;12.30;99.90;;;;;;5092844;28;20396;-72
2022/03/31 00:13:47;;;;;;;26.02;6.93;;;12.20;99.90;;;;;;5091380;28;20039;-73
2022/03/31 00:16:13;;;;;;;32.03;6.65;;;12.20;99.90;;;;;;5072217;28;20552;-73
2022/03/31 00:18:39;;;;;;;25.27;5.97;;;12.20;99.90;;;;;;5091915;28;20032;-73
2022/03/31 00:21:05;;;;;;;24.73;6.78;;;12.30;99.90;;;;;;5091116;28;20028;-73
2022/03/31 00:23:31;;;;;;;26.95;6.03;;;12.20;99.90;;;;;;5092299;28;20035;-73
2022/03/31 00:25:57;;;;;;;18.77;6.22;;;12.20;99.90;;;;;;5092266;28;20029;-73
2022/03/31 00:28:23;;;;;;;20.48;7.03;;;12.20;99.90;;;;;;5090229;28;20095;-73
2022/03/31 00:30:49;;;;;;;21.42;6.07;;;12.20;99.90;;;;;;5090324;28;20032;-73
2022/03/31 00:33:15;;;;;;;21.83;6.15;;;12.20;99.90;;;;;;5090872;28;20036;-73
2022/03/31 00:35:41;;;;;;;28.77;7.22;;;12.30;99.90;;;;;;5074855;28;20020;-73
2022/03/31 00:38:07;;;;;;;23.67;7.10;;;12.30;99.90;;;;;;5093334;28;20028;-73
2022/03/31 00:40:33;;;;;;;20.80;5.85;;;12.20;99.90;;;;;;5089512;28;20047;-73
2022/03/31 00:42:59;;;;;;;27.35;6.50;;;12.20;99.90;;;;;;5089498;28;20035;-73
2022/03/31 00:45:46;;;;;;;27.08;6.15;;;12.20;99.90;;;;;;5089602;28;20072;-73
2022/03/31 00:48:13;;;;;;;34.78;6.07;;;12.10;99.90;;;;;;5089767;28;20396;-74
2022/03/31 00:50:39;;;;;;;23.73;7.05;;;12.10;99.90;;;;;;5091503;28;20083;-74
2022/03/31 00:53:05;;;;;;;25.88;6.50;;;12.10;99.90;;;;;;5093206;28;20044;-73
2022/03/31 00:55:31;;;;;;;25.25;6.32;;;12.00;99.90;;;;;;5089664;28;20042;-73
2022/03/31 00:57:57;;;;;;;22.48;7.15;;;12.00;99.90;;;;;;5089724;28;20073;-73
2022/03/31 01:00:24;;;;;;;23.67;6.05;;;11.90;99.90;;;;;;5089865;28;20076;-73
2022/03/31 01:02:50;;;;;;;26.80;6.93;;;11.90;99.90;;;;;;5090021;28;20062;-74
2022/03/31 01:05:16;;;;;;;31.02;7.43;;;11.80;99.90;;;;;;5093138;28;20056;-73
2022/03/31 01:07:42;;;;;;;18.40;5.72;;;11.90;99.90;;;;;;5089038;28;20035;-73
2022/03/31 01:10:09;;;;;;;18.90;6.63;;;11.90;99.90;;;;;;5089392;28;20031;-73
2022/03/31 01:12:36;;;;;;;25.30;6.63;;;11.90;99.90;;;;;;5089779;28;20039;-73
2022/03/31 01:15:09;;;;;;;24.42;6.70;;;11.90;99.90;;;;;;5089685;28;20025;-73
2022/03/31 01:17:36;;;;;;;21.08;6.55;;;11.90;99.90;;;;;;5090954;28;20035;-73
2022/03/31 01:20:05;;;;;;;24.30;6.28;;;11.90;99.90;;;;;;5092005;28;20023;-73
2022/03/31 01:22:31;;;;;;;26.83;6.57;;;11.90;99.90;;;;;;5089778;28;20138;-73
2022/03/31 01:25:03;;;;;;;24.83;6.97;;;11.80;99.90;;;;;;5089661;28;20028;-73
2022/03/31 01:27:29;;;;;;;28.95;6.50;;;11.80;99.90;;;;;;5104889;28;20024;-73
2022/03/31 01:29:55;;;;;;;23.90;6.10;;;11.70;99.90;;;;;;5089550;28;20035;-73
2022/03/31 01:32:21;;;;;;;27.15;6.07;;;11.60;99.90;;;;;;5091826;28;20028;-73
2022/03/31 01:34:47;;;;;;;18.77;6.35;;;11.70;99.90;;;;;;5089246;28;20032;-73
2022/03/31 01:37:13;;;;;;;25.13;6.63;;;11.70;99.90;;;;;;5089475;28;20047;-73
2022/03/31 01:39:40;;;;;;;24.23;6.35;;;11.60;99.90;;;;;;5089157;28;20051;-73
2022/03/31 01:42:06;;;;;;;25.13;6.03;;;11.50;99.90;;;;;;5089044;28;20031;-73
2022/03/31 01:44:33;;;;;;;23.70;6.90;;;11.50;99.90;;;;;;5090814;28;20027;-73
2022/03/31 01:46:58;;;;;;;25.27;5.85;;;11.50;99.90;;;;;;5091383;28;20023;-73
2022/03/31 01:49:24;;;;;;;25.60;6.85;;;11.50;99.90;;;;;;5089280;28;20040;-73
2022/03/31 01:51:50;;;;;;;22.45;6.22;;;11.50;99.90;;;;;;5089379;28;20093;-73
2022/03/31 01:54:16;;;;;;;32.03;6.93;;;11.50;99.90;;;;;;5088704;28;20040;-73
2022/03/31 01:56:43;;;;;;;20.25;5.88;;;11.50;99.90;;;;;;5072822;28;20020;-73
2022/03/31 01:59:09;;;;;;;27.35;7.30;;;11.40;99.90;;;;;;5092783;28;20024;-73
2022/03/31 02:01:35;;;;;;;27.20;7.00;;;11.30;99.90;;;;;;5089022;28;20111;-73
2022/03/31 02:04:01;;;;;;;22.52;6.63;;;11.40;99.90;;;;;;5088805;28;20073;-73
2022/03/31 02:06:27;;;;;;;24.13;7.47;;;11.30;99.90;;;;;;5089264;28;20024;-73
2022/03/31 02:08:52;;;;;;;22.50;6.80;;;11.30;99.90;;;;;;5089724;28;20424;-73
2022/03/31 02:11:18;;;;;;;23.10;6.60;;;11.30;99.90;;;;;;5091594;28;20035;-72
2022/03/31 02:13:44;;;;;;;27.58;7.45;;;11.30;99.90;;;;;;5089886;28;20028;-73
2022/03/31 02:16:10;;;;;;;26.88;6.55;;;11.30;99.90;;;;;;5088818;28;20028;-73
2022/03/31 02:18:36;;;;;;;21.48;6.95;;;11.20;99.90;;;;;;5088658;28;20775;-73
2022/03/31 02:21:02;;;;;;;25.65;7.25;;;11.20;99.90;;;;;;5088776;28;20620;-73
2022/03/31 02:23:28;;;;;;;24.10;6.97;;;11.10;99.90;;;;;;5072567;28;20101;-73
2022/03/31 02:25:53;;;;;;;21.48;6.38;;;11.10;99.90;;;;;;5088595;28;20042;-73
2022/03/31 02:28:19;;;;;;;25.80;6.78;;;11.00;99.90;;;;;;5088484;28;20030;-73
2022/03/31 02:30:45;;;;;;;26.83;6.40;;;11.00;99.90;;;;;;5088626;28;20550;-73
2022/03/31 02:33:10;;;;;;;19.05;7.22;;;10.90;99.90;;;;;;5088063;28;20078;-73
2022/03/31 02:35:36;;;;;;;23.08;6.05;;;10.80;99.90;;;;;;5089222;28;20033;-73
2022/03/31 02:38:02;;;;;;;21.52;6.82;;;10.80;99.90;;;;;;5090275;28;20503;-73
2022/03/31 02:40:28;;;;;;;27.00;7.47;;;10.80;99.90;;;;;;5088040;28;20028;-73
2022/03/31 02:42:54;;;;;;;22.60;6.05;;;10.80;99.90;;;;;;5088474;28;20707;-73
2022/03/31 02:45:21;;;;;;;25.27;6.93;;;10.90;99.90;;;;;;5088411;28;20054;-73
2022/03/31 02:47:47;;;;;;;18.17;6.40;;;10.80;99.90;;;;;;5088410;28;20027;-73
2022/03/31 02:50:15;;;;;;;21.35;6.30;;;10.80;99.90;;;;;;5091949;28;20047;-73
2022/03/31 02:55:25;;;;;;;;;;;10.80;99.90;;;;;;5088260;28;20074;-73
2022/03/31 02:57:52;;;;;;;20.75;5.75;;;10.80;99.90;;;;;;5088623;28;19944;-73
2022/03/31 03:00:19;;;;;;;19.88;5.65;;;10.80;99.90;;;;;;5088220;28;20027;-73
2022/03/31 03:02:45;;;;;;;19.50;6.78;;;10.70;99.90;;;;;;5088022;28;20028;-73
2022/03/31 03:05:11;;;;;;;27.77;6.78;;;10.80;99.90;;;;;;5091110;28;20035;-73
2022/03/31 03:07:37;;;;;;;24.98;7.57;;;10.70;99.90;;;;;;5087042;28;20024;-73
2022/03/31 03:10:03;;;;;;;18.85;6.20;;;10.80;99.90;;;;;;5088000;28;20111;-74
2022/03/31 03:12:29;;;;;;;20.80;5.97;;;10.80;99.90;;;;;;5087765;28;20048;-73
2022/03/31 03:14:54;;;;;;;16.50;6.60;;;10.70;99.90;;;;;;5087923;28;20025;-73
2022/03/31 03:17:20;;;;;;;23.52;6.18;;;10.70;99.90;;;;;;5090006;28;20039;-73
2022/03/31 03:19:46;;;;;;;24.25;6.63;;;10.70;99.90;;;;;;5089822;28;20048;-73
2022/03/31 03:22:11;;;;;;;16.25;6.15;;;10.60;99.90;;;;;;5087583;28;20392;-73
2022/03/31 03:24:37;;;;;;;24.63;6.43;;;10.60;99.90;;;;;;5087650;28;20070;-73
2022/03/31 03:27:03;;;;;;;17.75;5.82;;;10.60;99.90;;;;;;5087819;28;20551;-73
2022/03/31 03:29:29;;;;;;;22.80;7.10;;;10.50;99.90;;;;;;5089640;28;20089;-73
2022/03/31 03:31:55;;;;;;;25.80;7.07;;;10.50;99.90;;;;;;5089098;28;20476;-73
2022/03/31 03:34:21;;;;;;;25.50;6.60;;;10.50;99.90;;;;;;5087755;28;20068;-73
2022/03/31 03:36:47;;;;;;;18.25;6.50;;;10.60;99.90;;;;;;5086925;28;20139;-73
2022/03/31 03:39:12;;;;;;;24.23;6.50;;;10.60;99.90;;;;;;5069590;28;20506;-73
2022/03/31 03:41:38;;;;;;;20.80;6.88;;;10.60;99.90;;;;;;5088104;28;20020;-73
2022/03/31 03:44:05;;;;;;;19.42;6.80;;;10.60;99.90;;;;;;5089378;28;20110;-74
2022/03/31 03:46:30;;;;;;;17.48;6.15;;;10.70;99.90;;;;;;5086737;28;20024;-73
2022/03/31 03:48:56;;;;;;;20.45;6.30;;;10.70;99.90;;;;;;5086326;28;20078;-74
2022/03/31 03:51:24;;;;;;;24.30;7.20;;;10.70;99.90;;;;;;5086238;28;20035;-73
2022/03/31 03:53:50;;;;;;;25.05;6.82;;;10.70;99.90;;;;;;5086532;28;20036;-73
2022/03/31 03:56:17;;;;;;;18.10;6.50;;;10.70;99.90;;;;;;5089940;28;20027;-73
2022/03/31 03:58:43;;;;;;;17.80;6.20;;;10.70;99.90;;;;;;5087331;28;20081;-73
2022/03/31 04:01:09;;;;;;;20.70;6.70;;;10.60;99.90;;;;;;5087016;28;20024;-73
2022/03/31 04:03:36;;;;;;;17.58;6.45;;;10.60;99.90;;;;;;5086312;28;20029;-73
2022/03/31 04:06:02;;;;;;;21.60;5.65;;;10.60;99.90;;;;;;5086054;28;20071;-73
2022/03/31 04:08:27;;;;;;;24.08;6.32;;;10.60;99.90;;;;;;5089715;28;20052;-73
2022/03/31 04:10:53;;;;;;;20.23;5.95;;;10.60;99.90;;;;;;5088231;28;20073;-73
2022/03/31 04:13:20;;;;;;;14.65;5.55;;;10.60;99.90;;;;;;5086634;28;20032;-73
2022/03/31 04:15:46;;;;;;;16.85;6.10;;;10.60;99.90;;;;;;5087118;28;20024;-73
2022/03/31 04:18:12;;;;;;;17.63;6.60;;;10.60;99.90;;;;;;5088366;28;20028;-73
2022/03/31 04:20:38;;;;;;;16.95;6.35;;;10.60;99.90;;;;;;5091442;28;20051;-73
2022/03/31 04:23:05;;;;;;;11.07;5.45;;;10.60;99.90;;;;;;5093320;28;20472;-73
2022/03/31 04:25:31;;;;;;;16.42;6.07;;;10.60;99.90;;;;;;5090596;28;20039;-73
2022/03/31 04:27:57;;;;;;;17.02;5.90;;;10.60;99.90;;;;;;5090922;28;20016;-73
2022/03/31 04:30:23;;;;;;;19.55;6.38;;;10.60;99.90;;;;;;5091555;28;20024;-73
2022/03/31 04:32:51;;;;;;;19.67;5.53;;;10.60;99.90;;;;;;5090580;28;20044;-73
2022/03/31 04:35:17;;;;;;;26.15;6.60;;;10.50;99.90;;;;;;5093499;28;20024;-73
2022/03/31 04:37:43;;;;;;;16.52;6.47;;;10.50;99.90;;;;;;5089696;28;20028;-73
2022/03/31 04:40:10;;;;;;;16.88;5.88;;;10.40;99.90;;;;;;5090299;28;20035;-74
2022/03/31 04:42:36;;;;;;;15.93;5.93;;;10.40;99.90;;;;;;5090162;28;20020;-73
2022/03/31 04:45:03;;;;;;;20.27;6.43;;;10.40;99.90;;;;;;5090475;28;20062;-73
2022/03/31 04:47:30;;;;;;;13.57;6.07;;;10.50;99.90;;;;;;5092554;28;20550;-73
2022/03/31 04:49:56;;;;;;;15.20;6.78;;;10.50;99.90;;;;;;5091049;28;20531;-73
2022/03/31 04:52:22;;;;;;;16.10;5.90;;;10.50;99.90;;;;;;5090577;28;20032;-73
2022/03/31 04:54:47;;;;;;;20.02;5.85;;;10.40;99.90;;;;;;5090034;28;20051;-73
2022/03/31 04:57:15;;;;;;;16.23;6.25;;;10.40;99.90;;;;;;5090474;28;20032;-73
2022/03/31 04:59:41;;;;;;;17.08;6.75;;;10.30;99.90;;;;;;5090734;28;20012;-73
2022/03/31 05:02:07;;;;;;;16.25;7.15;;;10.40;99.90;;;;;;5092866;28;20031;-81
2022/03/31 05:04:33;;;;;;;17.95;7.18;;;10.50;99.90;;;;;;5089314;28;20024;-70
2022/03/31 05:06:59;;;;;;;16.58;7.28;;;10.50;99.90;;;;;;5090550;28;20443;-73
2022/03/31 05:09:25;;;;;;;22.55;7.28;;;10.60;99.90;;;;;;5089168;28;20026;-70
2022/03/31 05:11:54;;;;;;;18.48;5.97;;;10.50;99.90;;;;;;5089476;28;20493;-71
2022/03/31 05:14:19;;;;;;;13.30;6.10;;;10.50;99.90;;;;;;5092519;28;20085;-71
2022/03/31 05:16:45;;;;;;;14.57;6.03;;;10.50;99.90;;;;;;5090749;28;20024;-72
2022/03/31 05:19:12;;;;;;;18.70;5.93;;;10.50;99.90;;;;;;5088914;28;20040;-71
2022/03/31 05:21:38;;;;;;;13.98;5.90;;;10.40;99.90;;;;;;5089588;28;20067;-71
2022/03/31 05:24:04;;;;;;;16.45;6.35;;;10.40;99.90;;;;;;5089630;28;20397;-71
2022/03/31 05:26:30;;;;;;;16.52;5.72;;;10.40;99.90;;;;;;5091772;28;20024;-72
2022/03/31 05:28:56;;;;;;;18.40;6.55;;;10.30;99.90;;;;;;5090654;28;20031;-71
2022/03/31 05:31:22;;;;;;;17.58;6.15;;;10.30;99.90;;;;;;5088890;28;20132;-71
2022/03/31 05:33:47;;;;;;;19.63;6.45;;;10.20;99.90;;;;;;5089272;28;20468;-71
2022/03/31 05:36:13;;;;;;;18.63;5.85;;;10.20;99.90;;;;;;5090539;28;20473;-71
2022/03/31 05:38:39;;;;;;;17.35;6.30;;;10.20;99.90;;;;;;5090606;28;20027;-71
2022/03/31 05:41:04;;;;;;;15.52;5.72;;;10.20;99.90;;;;;;5092705;28;20028;-70
2022/03/31 05:43:30;;;;;;;17.83;6.78;;;10.20;99.90;;;;;;5089647;28;20054;-71
2022/03/31 05:45:56;;;;;;;21.40;6.65;;;10.30;99.90;;;;;;5089776;28;20028;-71
2022/03/31 05:48:22;;;;;;;16.40;6.40;;;10.20;99.90;;;;;;5089635;28;20020;-71
2022/03/31 05:50:47;;;;;;;15.05;5.85;;;10.30;99.90;;;;;;5088948;28;20501;-71
2022/03/31 05:53:13;;;;;;;16.60;6.22;;;10.40;99.90;;;;;;5092034;28;20032;-71
2022/03/31 05:55:40;;;;;;;17.45;6.25;;;10.40;99.90;;;;;;5088852;28;20032;-71
2022/03/31 05:58:08;;;;;;;16.67;5.93;;;10.40;99.90;;;;;;5089014;28;20061;-71
2022/03/31 06:00:33;;;;;;;14.50;6.22;;;10.40;99.90;;;;;;5088607;28;20386;-71
2022/03/31 06:02:59;;;;;;;17.95;6.10;;;10.50;99.90;;;;;;5088532;28;20143;-70
2022/03/31 06:05:25;;;;;;;18.45;6.38;;;10.50;99.90;;;;;;5091551;28;20086;-71
2022/03/31 06:07:52;;;;;;;17.70;6.40;;;10.50;99.90;;;;;;5089741;28;20037;-71
2022/03/31 06:10:22;;;;;;;18.35;6.80;;;10.50;99.90;;;;;;5088440;28;20526;-71
2022/03/31 06:12:47;;;;;;;15.68;6.10;;;10.50;99.90;;;;;;5088560;28;20089;-71
2022/03/31 06:15:15;;;;;;;20.65;6.45;;;10.50;99.90;;;;;;5088616;28;20496;-71
2022/03/31 06:17:42;;;;;;;15.50;6.25;;;10.60;99.90;;;;;;5088993;28;20036;-71
2022/03/31 06:20:10;;;;;;;15.65;5.85;;;10.60;99.90;;;;;;5091332;28;20081;-71
2022/03/31 06:22:36;;;;;;;17.08;6.25;;;10.50;99.90;;;;;;5087388;28;20510;-70
2022/03/31 06:25:02;;;;;;;13.90;5.82;;;10.50;99.90;;;;;;5089001;28;20107;-71
2022/03/31 06:27:28;;;;;;;17.13;6.57;;;10.50;99.90;;;;;;5089177;28;20028;-71
2022/03/31 06:29:53;;;;;;;22.42;6.70;;;10.50;99.90;;;;;;5089027;28;20586;-70
2022/03/31 06:32:19;;;;;;;17.58;6.38;;;10.50;99.90;;;;;;5091369;28;20507;-71
2022/03/31 06:34:45;;;;;;;15.77;6.20;;;10.50;99.90;;;;;;5089707;28;20738;-71
2022/03/31 06:37:11;;;;;;;15.70;6.80;;;10.50;99.90;;;;;;5089408;28;20597;-70
2022/03/31 06:39:37;;;;;;;18.13;7.13;;;10.50;99.90;;;;;;5088946;28;20111;-70
2022/03/31 06:42:04;;;;;;;14.88;6.70;;;10.60;99.90;;;;;;5088495;28;20488;-71
2022/03/31 06:44:31;;;;;;;14.45;6.10;;;10.60;99.90;;;;;;5090937;28;20028;-71
2022/03/31 06:46:57;;;;;;;17.00;5.75;;;10.70;99.90;;;;;;5089949;28;20051;-71
2022/03/31 06:49:23;;;;;;;16.45;6.70;;;10.70;99.90;;;;;;5088460;28;20562;-70
2022/03/31 06:51:50;;;;;;;17.98;6.13;;;10.80;99.90;;;;;;5088919;28;20024;-71
2022/03/31 06:54:18;;;;;;;13.77;5.45;;;10.80;99.90;;;;;;5088923;28;20511;-71
2022/03/31 06:56:44;;;;;;;13.40;5.78;;;10.90;99.90;;;;;;5071528;28;20524;-75
2022/03/31 06:59:10;;;;;;;17.13;5.60;;;11.00;99.90;;;;;;5091773;28;20028;-71
2022/03/31 07:01:35;;;;;;;15.38;8.00;;;11.00;99.90;;;;;;5088206;28;20111;-71
2022/03/31 07:04:01;;;;;;;15.98;7.80;;;11.10;99.90;;;;;;5085174;28;20063;-72
2022/03/31 07:06:27;;;;;;;16.38;6.63;;;11.00;99.90;;;;;;5085113;28;20058;-72
2022/03/31 07:08:53;;;;;;;19.10;8.15;;;11.10;99.90;;;;;;5084123;28;20028;-72
2022/03/31 07:11:19;;;;;;;19.73;8.48;;;11.10;99.90;;;;;;5087067;28;20024;-72
2022/03/31 07:13:45;;;;;;;15.80;7.90;;;11.20;99.90;;;;;;5100539;28;20123;-71
2022/03/31 07:16:11;;;;;;;15.90;7.68;;;11.20;99.90;;;;;;5083739;28;20472;-72
2022/03/31 07:18:37;;;;;;;22.52;7.57;;;11.30;99.90;;;;;;5083799;28;20084;-72
2022/03/31 07:21:03;;;;;;;14.10;7.38;;;11.40;99.90;;;;;;5083892;28;20024;-71
2022/03/31 07:23:29;;;;;;;15.65;7.63;;;11.50;99.90;;;;;;5086852;28;20036;-71
2022/03/31 07:25:58;;;;;;;11.98;5.80;;;11.60;99.90;;;;;;5084676;28;20012;-72
2022/03/31 07:28:24;;;;;;;14.00;6.68;;;11.70;99.90;;;;;;5082829;28;20114;-71
2022/03/31 07:30:51;;;;;;;10.40;6.28;;;11.90;99.90;;;;;;5083700;28;20160;-72
2022/03/31 07:33:19;;;;;;;15.60;6.32;;;11.90;99.90;;;;;;5084216;28;20394;-72
2022/03/31 07:35:47;;;;;;;14.43;6.65;;;12.00;99.90;;;;;;5049986;28;20024;-72
2022/03/31 07:38:14;;;;;;;17.35;6.50;;;12.10;99.90;;;;;;5082674;28;20024;-72
2022/03/31 07:40:41;;;;;;;15.48;6.70;;;12.10;99.90;;;;;;5087345;28;20032;-72
2022/03/31 07:43:08;;;;;;;13.52;7.05;;;12.20;99.90;;;;;;5087737;28;20126;-71
2022/03/31 07:45:35;;;;;;;12.73;6.90;;;12.30;99.90;;;;;;5087714;28;20035;-71
2022/03/31 07:48:02;;;;;;;13.20;6.15;;;12.40;99.90;;;;;;5088329;28;20021;-71
2022/03/31 07:50:29;;;;;;;12.10;5.95;;;12.50;99.90;;;;;;5089887;28;20191;-71
2022/03/31 07:52:55;;;;;;;15.45;6.75;;;12.60;99.90;;;;;;5089839;28;20142;-71
2022/03/31 07:55:20;;;;;;;11.07;6.03;;;12.70;99.90;;;;;;5092167;28;20030;-71
2022/03/31 07:57:47;;;;;;;13.13;5.85;;;12.90;99.90;;;;;;5091762;28;20070;-71
2022/03/31 08:00:14;;;;;;;12.48;5.10;;;12.90;99.90;;;;;;5092185;28;20070;-71
2022/03/31 08:02:44;;;;;;;12.60;4.50;;;13.00;99.90;;;;;;5093399;28;20028;-72
2022/03/31 08:05:11;;;;;;;11.80;5.18;;;13.00;99.90;;;;;;5095322;28;20024;-72
2022/03/31 08:07:38;;;;;;;11.57;4.80;;;13.20;99.90;;;;;;5091954;28;20024;-72
2022/03/31 08:10:05;;;;;;;10.23;4.38;;;13.30;99.90;;;;;;5091740;28;20016;-72
2022/03/31 08:12:33;;;;;;;11.60;5.20;;;13.40;99.90;;;;;;5091214;28;20039;-72
2022/03/31 08:15:00;;;;;;;9.48;4.60;;;13.50;99.90;;;;;;5092058;28;20024;-71
2022/03/31 08:17:26;;;;;;;10.88;3.90;;;13.60;99.90;;;;;;5094193;28;20032;-72
2022/03/31 08:19:52;;;;;;;8.52;3.30;;;13.70;99.90;;;;;;5093048;28;20027;-71
2022/03/31 08:22:18;;;;;;;7.03;2.95;;;13.90;99.90;;;;;;5091632;28;20477;-72
2022/03/31 08:24:44;;;;;;;9.85;3.92;;;14.00;99.90;;;;;;5092810;28;20369;-72
2022/03/31 08:27:10;;;;;;;8.38;3.50;;;14.00;99.90;;;;;;5091317;28;20028;-72
2022/03/31 08:29:37;;;;;;;11.93;3.53;;;14.10;99.90;;;;;;5092851;28;20039;-71
2022/03/31 08:32:04;;;;;;;5.90;2.60;;;14.30;99.90;;;;;;5076137;28;20059;-72
2022/03/31 08:34:30;;;;;;;10.05;3.58;;;14.30;99.90;;;;;;5091458;28;20036;-73
2022/03/31 08:36:56;;;;;;;7.45;3.20;;;14.50;99.90;;;;;;5091630;28;20035;-72
2022/03/31 08:39:21;;;;;;;8.38;3.30;;;14.50;99.90;;;;;;5091159;28;20103;-72
2022/03/31 08:41:47;;;;;;;9.05;3.45;;;14.60;99.90;;;;;;5090934;28;20099;-72
2022/03/31 08:44:18;;;;;;;7.57;3.40;;;14.70;99.90;;;;;;5094700;28;20028;-71
2022/03/31 08:46:44;;;;;;;12.45;3.35;;;14.80;99.90;;;;;;5091620;28;20039;-72
2022/03/31 08:49:11;;;;;;;8.63;3.60;;;15.00;99.90;;;;;;5091278;28;20102;-72
2022/03/31 08:51:37;;;;;;;9.70;3.08;;;15.10;99.90;;;;;;5091075;28;20024;-72
2022/03/31 08:54:04;;;;;;;9.20;3.15;;;15.20;99.90;;;;;;5090785;28;20029;-71
2022/03/31 08:56:30;;;;;;;8.68;3.30;;;15.40;99.90;;;;;;5093121;28;20497;-72
2022/03/31 08:58:56;;;;;;;11.15;3.60;;;15.50;99.90;;;;;;5092139;28;20072;-72
2022/03/31 09:01:22;;;;;;;8.55;3.05;;;15.70;99.90;;;;;;5090837;28;20553;-72
2022/03/31 09:03:48;;;;;;;8.23;3.70;;;15.80;99.90;;;;;;5091876;28;20034;-72
2022/03/31 09:06:25;;;;;;;9.48;4.35;;;16.10;99.90;;;;;;5090384;28;20111;-72
2022/03/31 09:08:59;;;;;;;7.90;3.35;;;16.30;99.90;;;;;;5057696;28;20039;-71
2022/03/31 09:11:29;;;;;;;7.13;3.50;;;16.50;99.90;;;;;;5092684;28;20793;-72
2022/03/31 09:14:00;;;;;;;6.28;2.60;;;16.70;99.90;;;;;;5091645;28;20044;-72
2022/03/31 09:16:36;;;;;;;8.52;2.80;;;16.60;99.10;;;;;;5091075;28;20028;-72
2022/03/31 09:19:10;;;;;;;9.82;2.67;;;16.30;98.90;;;;;;5090522;28;20024;-72
2022/03/31 09:21:50;;;;;;;7.30;2.70;;;16.20;99.20;;;;;;5072328;28;20032;-72
2022/03/31 09:24:16;;;;;;;7.20;2.70;;;16.80;98.40;;;;;;5090403;28;20028;-72
2022/03/31 09:26:49;;;;;;;5.72;2.15;;;17.20;96.70;;;;;;5090778;28;20039;-72
2022/03/31 09:29:17;;;;;;;6.93;2.40;;;17.50;97.20;;;;;;5090010;28;20031;-72
2022/03/31 09:31:44;;;;;;;6.35;2.25;;;17.60;95.60;;;;;;5090699;28;20519;-72
2022/03/31 09:34:10;;;;;;;6.43;2.00;;;17.70;96.20;;;;;;5090477;28;20148;-72
2022/03/31 09:36:37;;;;;;;6.32;2.33;;;17.80;95.50;;;;;;5090186;28;20024;-72
2022/03/31 09:39:05;;;;;;;4.85;1.77;;;18.00;95.30;;;;;;5089797;28;20111;-72
2022/03/31 09:41:36;;;;;;;5.13;2.15;;;18.00;93.70;;;;;;5092491;28;20036;-72
2022/03/31 09:44:05;;;;;;;4.25;2.13;;;18.10;94.00;;;;;;5092083;28;20024;-71
2022/03/31 09:46:38;;;;;;;4.43;1.63;;;18.20;94.60;;;;;;5090093;28;20020;-72
2022/03/31 09:49:10;;;;;;;;;;;18.30;93.70;;;;;;5090279;28;20030;-72
2022/03/31 09:51:36;;;;;;;5.70;1.92;;;18.30;92.80;;;;;;5089842;28;19916;-72
2022/03/31 09:54:02;;;;;;;5.63;2.00;;;18.20;91.30;;;;;;5089956;28;20064;-72
2022/03/31 09:56:28;;;;;;;5.55;2.22;;;18.10;91.50;;;;;;5092090;28;20523;-72
2022/03/31 09:58:58;;;;;;;8.82;2.47;;;18.00;90.60;;;;;;5090817;28;20539;-71
2022/03/31 10:01:24;;;;;;;5.68;2.30;;;18.00;90.00;;;;;;5089617;28;20059;-72
2022/03/31 10:03:54;;;;;;;7.70;2.40;;;18.30;90.30;;;;;;5090038;28;20058;-72
2022/03/31 10:06:20;;;;;;;8.32;2.60;;;18.40;87.10;;;;;;5089515;28;20081;-72
2022/03/31 10:08:47;;;;;;;8.85;2.90;;;18.50;86.90;;;;;;5089295;28;20028;-71
2022/03/31 10:11:14;;;;;;;5.82;2.25;;;18.40;86.40;;;;;;5093115;28;20016;-72
2022/03/31 10:13:52;;;;;;;6.13;2.63;;;18.30;87.10;;;;;;5089932;28;20032;-71
2022/03/31 10:16:25;;;;;;;7.00;2.40;;;18.40;88.80;;;;;;5089050;28;20031;-72
2022/03/31 10:18:51;;;;;;;7.38;2.67;;;18.40;86.90;;;;;;5089217;28;20356;-72
2022/03/31 10:21:28;;;;;;;8.65;2.40;;;18.60;86.80;;;;;;5091160;28;20028;-72
2022/03/31 10:26:40;;;;;;;8.38;2.53;;;18.60;86.50;;;;;;5090599;28;20455;-72
2022/03/31 10:29:15;;;;;;;8.00;2.30;;;18.70;85.10;;;;;;5091836;28;20075;-72
2022/03/31 10:31:45;;;;;;;4.72;2.10;;;18.90;84.10;;;;;;5090861;28;20069;-71
2022/03/31 10:34:14;;;;;;;6.65;2.63;;;18.90;83.40;;;;;;5089348;28;20047;-71
2022/03/31 10:36:48;;;;;;;6.63;2.42;;;18.90;82.90;;;;;;5089045;28;20027;-71
2022/03/31 10:39:21;;;;;;;6.50;2.25;;;18.90;82.80;;;;;;5088670;28;20035;-71
2022/03/31 10:42:00;;;;;;;8.30;2.38;;;19.00;84.40;;;;;;5073530;28;20082;-71
2022/03/31 10:44:26;;;;;;;6.05;2.30;;;19.00;85.20;;;;;;5091332;28;20085;-71
2022/03/31 10:47:04;;;;;;;8.30;2.63;;;18.90;83.30;;;;;;5090018;28;20028;-72
2022/03/31 10:49:31;;;;;;;5.32;2.05;;;18.70;83.90;;;;;;5088319;28;20415;-72
2022/03/31 10:51:58;;;;;;;6.40;2.00;;;18.60;83.00;;;;;;5088406;28;20034;-72
2022/03/31 10:54:31;;;;;;;5.65;2.00;;;18.30;80.80;;;;;;5088629;28;20035;-72
2022/03/31 10:57:06;;;;;;;5.32;1.95;;;18.40;81.70;;;;;;5088113;28;20051;-72
2022/03/31 10:59:32;;;;;;;7.40;1.88;;;18.80;83.50;;;;;;5090376;28;20111;-72
2022/03/31 11:02:13;;;;;;;6.82;2.42;;;18.70;80.70;;;;;;5091875;28;20389;-72
2022/03/31 11:04:57;;;;;;;6.25;1.80;;;18.80;82.30;;;;;;5088397;28;20435;-71
2022/03/31 11:07:26;;;;;;;4.57;1.63;;;18.60;80.70;;;;;;5088036;28;20111;-72
2022/03/31 11:10:10;;;;;;;7.25;1.90;;;18.60;82.30;;;;;;5088338;28;20077;-72
2022/03/31 11:12:36;;;;;;;4.63;1.85;;;18.60;81.20;;;;;;5088192;28;20523;-72
2022/03/31 11:15:08;;;;;;;6.95;2.05;;;18.60;82.40;;;;;;5088308;28;20033;-71
2022/03/31 11:17:36;;;;;;;6.45;1.90;;;18.30;78.90;;;;;;5089695;28;20032;-71
2022/03/31 11:20:14;;;;;;;7.50;2.00;;;18.20;77.10;;;;;;5090233;28;20034;-72
2022/03/31 11:22:49;;;;;;;5.10;1.60;;;18.10;76.80;;;;;;5088497;28;20039;-72
2022/03/31 11:25:16;;;;;;;6.70;2.17;;;18.30;78.60;;;;;;5088299;28;20039;-75
2022/03/31 11:27:43;;;;;;;6.70;2.10;;;18.70;76.70;;;;;;5087489;28;20077;-71
2022/03/31 11:30:14;;;;;;;4.35;1.65;;;18.70;76.00;;;;;;5088711;28;20051;-70
2022/03/31 11:32:41;;;;;;;5.47;1.95;;;18.60;75.00;;;;;;5089083;28;20039;-71
2022/03/31 11:35:17;;;;;;;4.38;1.90;;;18.50;77.20;;;;;;5091171;28;20388;-72
2022/03/31 11:37:46;;;;;;;6.25;2.15;;;19.00;76.60;;;;;;5088438;28;20397;-71
2022/03/31 11:40:35;;;;;;;4.50;1.92;;;19.20;78.20;;;;;;5089911;28;20047;-71
2022/03/31 11:43:03;;;;;;;7.75;2.05;;;19.30;74.90;;;;;;5088281;28;20016;-71
2022/03/31 11:45:33;;;;;;;8.25;2.30;;;18.90;75.10;;;;;;5087997;28;20497;-70
2022/03/31 11:48:05;;;;;;;7.63;2.40;;;18.70;75.80;;;;;;5088085;28;20043;-70
2022/03/31 11:50:33;;;;;;;5.82;1.77;;;18.90;77.00;;;;;;5071568;28;20052;-70
2022/03/31 11:53:00;;;;;;;7.82;2.60;;;18.90;73.70;;;;;;5089708;28;20066;-70
2022/03/31 11:55:27;;;;;;;6.05;2.30;;;19.10;75.60;;;;;;5088218;28;20050;-71
2022/03/31 11:57:55;;;;;;;8.73;2.42;;;19.20;74.90;;;;;;5087868;28;20024;-70
2022/03/31 12:00:23;;;;;;;6.68;2.00;;;19.00;75.10;;;;;;5087958;28;20024;-70
2022/03/31 12:02:57;;;;;;;6.32;1.95;;;18.90;74.00;;;;;;5087674;28;20707;-70
2022/03/31 12:05:22;;;;;;;7.13;1.90;;;18.80;76.30;;;;;;5090256;28;20059;-71
2022/03/31 12:07:50;;;;;;;4.70;2.08;;;18.50;72.10;;;;;;5088595;28;20060;-70
2022/03/31 12:10:16;;;;;;;7.18;2.20;;;18.60;74.50;;;;;;5088084;28;20025;-70
2022/03/31 12:12:47;;;;;;;5.40;2.67;;;18.80;75.30;;;;;;5086900;28;20052;-70
2022/03/31 12:15:21;;;;;;;6.25;2.20;;;19.20;72.70;;;;;;5079466;28;20520;-70
2022/03/31 12:18:11;;;;;;;6.55;1.92;;;19.00;75.90;;;;;;5069145;28;20089;-71
2022/03/31 12:20:37;;;;;;;6.57;2.30;;;19.30;74.00;;;;;;5068792;28;20058;-71
2022/03/31 12:23:20;;;;;;;6.35;2.00;;;19.60;70.20;;;;;;5091853;28;20497;-71
2022/03/31 12:25:46;;;;;;;8.52;2.40;;;19.40;66.80;;;;;;5087448;28;20056;-71
2022/03/31 12:28:12;;;;;;;5.65;1.80;;;19.50;67.60;;;;;;5089147;28;20446;-70
2022/03/31 12:30:53;;;;;;;6.82;1.98;;;19.80;70.10;;;;;;5088735;28;20035;-71
2022/03/31 12:33:22;;;;;;;7.47;2.13;;;19.60;69.60;;;;;;5088732;28;20031;-71
2022/03/31 12:36:06;;;;;;;5.60;1.90;;;19.00;73.10;;;;;;5084636;28;20036;-71
2022/03/31 12:38:48;;;;;;;17.73;9.15;;;19.20;74.70;;;;;;5088207;28;20154;-71
2022/03/31 12:41:35;;;;;;;5.60;2.00;;;18.80;75.10;;;;;;5104124;28;20039;-71
2022/03/31 12:44:02;;;;;;;6.22;2.10;;;18.90;72.80;;;;;;5095080;28;20032;-71
2022/03/31 12:46:34;;;;;;;5.85;2.60;;;19.20;75.30;;;;;;5093008;28;20032;-73
2022/03/31 12:49:12;;;;;;;5.18;2.08;;;19.20;74.60;;;;;;5094956;28;20016;-73